Главная страница
METAR-TAF:

METAR-TAF

Аэропорты :

Кристиансанн, Норвегия

широта: 58-12N, долгота: 008-05E, высота над уровнем моря: 1 м

Текущие метеонаблюдения

Эта сводка был подготовлена 22 минут назад, в 21:20 UTC
Ветер 4 Узел от северо-восточный
Температура 8°C
Влажность 100%
Давление 1013 hPa
Видимость: 9000 м

METAR: ENCN 252120Z AUTO 04004KT 9000 NCD 08/08 Q1013

Время: 23:42 (21:42 UTC)

Прогноз

Эта сводка был подготовлена 4 часа и 42 минут назад, в 17:00 UTC
Прогноз действительный с 25-го 18 UTC до 25-го 21 UTC
Ветер 8 Узел от северо-восточный
Видимость 10 км и более
Отдельные облака на высоте 3000 фута

TAF: ENCN 251700Z 2518/2521 05008KT 9999 SCT030

Метеонаблюдения и прогнозы для более 4000 аэропортов (сводки METAR и TAF).

Имеющиеся станции представлены на карте желтыми и красными точками.

Чтобы увидеть название станции, наведите на нее мышь.

Затем щелкните, чтобы увидеть метеонаблюдения и метеопрогнозы.

Управление картой: чтобы увеличить масштаб, щелкните зеленые кнопки с черным крестиком; чтобы уменьшить масштаб, щелкните зеленую кнопку с тире; для просмотра соседних карт щелкайте зеленые стрелки.


METAR-TAF: